sensor_id;sensor_type;location;lat;lon;timestamp;P1;durP1;ratioP1;P2;durP2;ratioP2
16031;SDS011;8120;48.308;8.914;2022-07-09T00:01:26;3.90;;;1.93;;
16031;SDS011;8120;48.308;8.914;2022-07-09T00:03:54;3.13;;;2.27;;
16031;SDS011;8120;48.308;8.914;2022-07-09T00:06:22;3.10;;;2.03;;
16031;SDS011;8120;48.308;8.914;2022-07-09T00:08:51;3.53;;;2.20;;
16031;SDS011;8120;48.308;8.914;2022-07-09T00:11:19;3.10;;;2.23;;
16031;SDS011;8120;48.308;8.914;2022-07-09T00:13:47;2.47;;;2.27;;
16031;SDS011;8120;48.308;8.914;2022-07-09T00:16:15;3.43;;;2.17;;
16031;SDS011;8120;48.308;8.914;2022-07-09T00:18:43;3.53;;;2.30;;
16031;SDS011;8120;48.308;8.914;2022-07-09T00:21:11;3.83;;;2.40;;
16031;SDS011;8120;48.308;8.914;2022-07-09T00:23:39;2.80;;;2.50;;
16031;SDS011;8120;48.308;8.914;2022-07-09T00:26:08;6.67;;;2.93;;
16031;SDS011;8120;48.308;8.914;2022-07-09T00:28:36;5.97;;;2.47;;
16031;SDS011;8120;48.308;8.914;2022-07-09T00:31:04;2.90;;;2.20;;
16031;SDS011;8120;48.308;8.914;2022-07-09T00:33:32;4.40;;;2.30;;
16031;SDS011;8120;48.308;8.914;2022-07-09T00:36:00;3.00;;;2.17;;
16031;SDS011;8120;48.308;8.914;2022-07-09T00:38:28;4.47;;;2.50;;
16031;SDS011;8120;48.308;8.914;2022-07-09T00:40:57;3.53;;;2.30;;
16031;SDS011;8120;48.308;8.914;2022-07-09T00:43:26;3.47;;;2.63;;
16031;SDS011;8120;48.308;8.914;2022-07-09T00:45:54;3.97;;;2.43;;
16031;SDS011;8120;48.308;8.914;2022-07-09T00:48:21;4.27;;;3.33;;
16031;SDS011;8120;48.308;8.914;2022-07-09T00:50:49;3.73;;;2.40;;
16031;SDS011;8120;48.308;8.914;2022-07-09T00:53:18;6.67;;;2.53;;
16031;SDS011;8120;48.308;8.914;2022-07-09T00:55:49;3.80;;;2.53;;
16031;SDS011;8120;48.308;8.914;2022-07-09T00:58:18;5.00;;;2.73;;
16031;SDS011;8120;48.308;8.914;2022-07-09T01:00:49;4.03;;;2.87;;
16031;SDS011;8120;48.308;8.914;2022-07-09T01:03:17;5.73;;;3.17;;
16031;SDS011;8120;48.308;8.914;2022-07-09T01:05:45;5.30;;;3.10;;
16031;SDS011;8120;48.308;8.914;2022-07-09T01:08:13;7.73;;;3.37;;
16031;SDS011;8120;48.308;8.914;2022-07-09T01:10:40;7.53;;;3.00;;
16031;SDS011;8120;48.308;8.914;2022-07-09T01:13:10;5.40;;;3.80;;
16031;SDS011;8120;48.308;8.914;2022-07-09T01:15:38;6.43;;;3.47;;
16031;SDS011;8120;48.308;8.914;2022-07-09T01:18:10;6.33;;;3.47;;
16031;SDS011;8120;48.308;8.914;2022-07-09T01:20:39;5.90;;;3.30;;
16031;SDS011;8120;48.308;8.914;2022-07-09T01:23:07;4.37;;;3.17;;
16031;SDS011;8120;48.308;8.914;2022-07-09T01:25:36;6.73;;;3.77;;
16031;SDS011;8120;48.308;8.914;2022-07-09T01:28:06;4.10;;;2.40;;
16031;SDS011;8120;48.308;8.914;2022-07-09T01:30:36;3.50;;;2.70;;
16031;SDS011;8120;48.308;8.914;2022-07-09T01:33:05;5.40;;;2.47;;
16031;SDS011;8120;48.308;8.914;2022-07-09T01:35:33;3.43;;;2.20;;
16031;SDS011;8120;48.308;8.914;2022-07-09T01:38:02;3.40;;;2.50;;
16031;SDS011;8120;48.308;8.914;2022-07-09T01:40:30;4.43;;;2.77;;
16031;SDS011;8120;48.308;8.914;2022-07-09T01:42:58;5.33;;;3.10;;
16031;SDS011;8120;48.308;8.914;2022-07-09T01:45:25;3.83;;;2.63;;
16031;SDS011;8120;48.308;8.914;2022-07-09T01:47:53;4.17;;;2.70;;
16031;SDS011;8120;48.308;8.914;2022-07-09T01:50:21;5.30;;;2.77;;
16031;SDS011;8120;48.308;8.914;2022-07-09T01:52:49;4.57;;;2.90;;
16031;SDS011;8120;48.308;8.914;2022-07-09T01:55:18;3.37;;;2.73;;
16031;SDS011;8120;48.308;8.914;2022-07-09T01:57:46;3.30;;;2.50;;
16031;SDS011;8120;48.308;8.914;2022-07-09T02:00:14;4.73;;;2.60;;
16031;SDS011;8120;48.308;8.914;2022-07-09T02:02:44;3.97;;;3.03;;
16031;SDS011;8120;48.308;8.914;2022-07-09T02:05:12;6.53;;;3.13;;
16031;SDS011;8120;48.308;8.914;2022-07-09T02:07:41;3.93;;;2.40;;
16031;SDS011;8120;48.308;8.914;2022-07-09T02:10:09;4.70;;;2.73;;
16031;SDS011;8120;48.308;8.914;2022-07-09T02:12:38;4.27;;;2.63;;
16031;SDS011;8120;48.308;8.914;2022-07-09T02:15:07;5.30;;;2.90;;
16031;SDS011;8120;48.308;8.914;2022-07-09T02:17:37;3.83;;;2.73;;
16031;SDS011;8120;48.308;8.914;2022-07-09T02:20:05;5.47;;;2.83;;
16031;SDS011;8120;48.308;8.914;2022-07-09T02:22:35;4.60;;;2.50;;
16031;SDS011;8120;48.308;8.914;2022-07-09T02:25:03;5.17;;;2.20;;
16031;SDS011;8120;48.308;8.914;2022-07-09T02:27:32;3.00;;;2.50;;
16031;SDS011;8120;48.308;8.914;2022-07-09T02:30:01;2.57;;;2.20;;
16031;SDS011;8120;48.308;8.914;2022-07-09T02:32:29;4.57;;;2.40;;
16031;SDS011;8120;48.308;8.914;2022-07-09T02:34:57;4.47;;;2.53;;
16031;SDS011;8120;48.308;8.914;2022-07-09T02:37:25;2.53;;;2.30;;
16031;SDS011;8120;48.308;8.914;2022-07-09T02:39:52;4.17;;;2.53;;
16031;SDS011;8120;48.308;8.914;2022-07-09T02:42:20;5.33;;;2.63;;
16031;SDS011;8120;48.308;8.914;2022-07-09T02:44:48;3.73;;;2.50;;
16031;SDS011;8120;48.308;8.914;2022-07-09T02:47:18;4.87;;;2.83;;
16031;SDS011;8120;48.308;8.914;2022-07-09T02:49:45;3.27;;;2.63;;
16031;SDS011;8120;48.308;8.914;2022-07-09T02:52:13;3.53;;;2.87;;
16031;SDS011;8120;48.308;8.914;2022-07-09T02:54:42;5.77;;;2.67;;
16031;SDS011;8120;48.308;8.914;2022-07-09T02:57:10;3.53;;;2.63;;
16031;SDS011;8120;48.308;8.914;2022-07-09T02:59:39;5.07;;;2.73;;
16031;SDS011;8120;48.308;8.914;2022-07-09T03:02:07;4.80;;;2.70;;
16031;SDS011;8120;48.308;8.914;2022-07-09T03:04:36;6.20;;;2.70;;
16031;SDS011;8120;48.308;8.914;2022-07-09T03:07:04;5.53;;;3.13;;
16031;SDS011;8120;48.308;8.914;2022-07-09T03:09:32;3.67;;;2.80;;
16031;SDS011;8120;48.308;8.914;2022-07-09T03:12:00;6.37;;;3.80;;
16031;SDS011;8120;48.308;8.914;2022-07-09T03:14:28;14.33;;;7.37;;
16031;SDS011;8120;48.308;8.914;2022-07-09T03:16:56;22.50;;;12.73;;
16031;SDS011;8120;48.308;8.914;2022-07-09T03:19:23;16.67;;;10.20;;
16031;SDS011;8120;48.308;8.914;2022-07-09T03:21:53;10.13;;;7.53;;
16031;SDS011;8120;48.308;8.914;2022-07-09T03:24:21;16.70;;;8.67;;
16031;SDS011;8120;48.308;8.914;2022-07-09T03:26:48;11.70;;;7.87;;
16031;SDS011;8120;48.308;8.914;2022-07-09T03:29:16;11.07;;;5.87;;
16031;SDS011;8120;48.308;8.914;2022-07-09T03:31:44;8.63;;;5.00;;
16031;SDS011;8120;48.308;8.914;2022-07-09T03:34:12;6.83;;;4.47;;
16031;SDS011;8120;48.308;8.914;2022-07-09T03:36:41;8.20;;;4.17;;
16031;SDS011;8120;48.308;8.914;2022-07-09T03:39:10;5.23;;;3.37;;
16031;SDS011;8120;48.308;8.914;2022-07-09T03:41:38;5.43;;;3.20;;
16031;SDS011;8120;48.308;8.914;2022-07-09T03:44:05;5.10;;;3.43;;
16031;SDS011;8120;48.308;8.914;2022-07-09T03:46:33;3.57;;;2.43;;
16031;SDS011;8120;48.308;8.914;2022-07-09T03:49:04;4.23;;;2.67;;
16031;SDS011;8120;48.308;8.914;2022-07-09T03:51:32;4.50;;;2.50;;
16031;SDS011;8120;48.308;8.914;2022-07-09T03:54:00;3.23;;;2.40;;
16031;SDS011;8120;48.308;8.914;2022-07-09T03:56:29;4.43;;;2.67;;
16031;SDS011;8120;48.308;8.914;2022-07-09T03:58:57;3.87;;;2.50;;
16031;SDS011;8120;48.308;8.914;2022-07-09T04:01:25;3.20;;;2.43;;
16031;SDS011;8120;48.308;8.914;2022-07-09T04:03:53;3.40;;;2.20;;
16031;SDS011;8120;48.308;8.914;2022-07-09T04:06:21;5.60;;;2.00;;
16031;SDS011;8120;48.308;8.914;2022-07-09T04:08:49;2.63;;;2.13;;
16031;SDS011;8120;48.308;8.914;2022-07-09T04:11:17;2.27;;;2.07;;
16031;SDS011;8120;48.308;8.914;2022-07-09T04:13:46;3.27;;;2.20;;
16031;SDS011;8120;48.308;8.914;2022-07-09T04:16:14;2.20;;;1.93;;
16031;SDS011;8120;48.308;8.914;2022-07-09T04:18:42;7.37;;;2.57;;
16031;SDS011;8120;48.308;8.914;2022-07-09T04:21:11;4.60;;;2.90;;
16031;SDS011;8120;48.308;8.914;2022-07-09T04:23:39;5.37;;;2.60;;
16031;SDS011;8120;48.308;8.914;2022-07-09T04:26:06;5.40;;;2.37;;
16031;SDS011;8120;48.308;8.914;2022-07-09T04:28:35;3.20;;;1.90;;
16031;SDS011;8120;48.308;8.914;2022-07-09T04:31:04;2.77;;;1.97;;
16031;SDS011;8120;48.308;8.914;2022-07-09T04:33:32;4.37;;;2.10;;
16031;SDS011;8120;48.308;8.914;2022-07-09T04:36:00;2.47;;;2.00;;
16031;SDS011;8120;48.308;8.914;2022-07-09T04:38:28;6.37;;;2.20;;
16031;SDS011;8120;48.308;8.914;2022-07-09T04:40:57;3.23;;;2.27;;
16031;SDS011;8120;48.308;8.914;2022-07-09T04:43:25;3.20;;;1.93;;
16031;SDS011;8120;48.308;8.914;2022-07-09T04:45:53;2.33;;;1.90;;
16031;SDS011;8120;48.308;8.914;2022-07-09T04:48:22;5.30;;;1.97;;
16031;SDS011;8120;48.308;8.914;2022-07-09T04:50:50;3.33;;;2.07;;
16031;SDS011;8120;48.308;8.914;2022-07-09T04:53:18;2.13;;;1.90;;
16031;SDS011;8120;48.308;8.914;2022-07-09T04:55:46;3.40;;;1.80;;
16031;SDS011;8120;48.308;8.914;2022-07-09T04:58:14;2.73;;;2.13;;
16031;SDS011;8120;48.308;8.914;2022-07-09T05:00:42;3.73;;;1.90;;
16031;SDS011;8120;48.308;8.914;2022-07-09T05:03:09;6.90;;;2.23;;
16031;SDS011;8120;48.308;8.914;2022-07-09T05:05:39;17.10;;;6.03;;
16031;SDS011;8120;48.308;8.914;2022-07-09T05:08:15;4.47;;;3.00;;
16031;SDS011;8120;48.308;8.914;2022-07-09T05:10:47;3.63;;;1.90;;
16031;SDS011;8120;48.308;8.914;2022-07-09T05:13:15;5.40;;;2.10;;
16031;SDS011;8120;48.308;8.914;2022-07-09T05:15:43;2.30;;;1.87;;
16031;SDS011;8120;48.308;8.914;2022-07-09T05:18:11;3.27;;;2.13;;
16031;SDS011;8120;48.308;8.914;2022-07-09T05:20:41;3.93;;;2.40;;
16031;SDS011;8120;48.308;8.914;2022-07-09T05:23:09;2.87;;;2.00;;
16031;SDS011;8120;48.308;8.914;2022-07-09T05:25:37;2.80;;;1.70;;
16031;SDS011;8120;48.308;8.914;2022-07-09T05:28:05;3.10;;;1.83;;
16031;SDS011;8120;48.308;8.914;2022-07-09T05:30:33;3.77;;;2.37;;
16031;SDS011;8120;48.308;8.914;2022-07-09T05:33:03;3.70;;;2.10;;
16031;SDS011;8120;48.308;8.914;2022-07-09T05:35:31;3.57;;;2.00;;
16031;SDS011;8120;48.308;8.914;2022-07-09T05:38:04;3.70;;;1.93;;
16031;SDS011;8120;48.308;8.914;2022-07-09T05:40:32;4.73;;;2.30;;
16031;SDS011;8120;48.308;8.914;2022-07-09T05:42:59;3.57;;;1.93;;
16031;SDS011;8120;48.308;8.914;2022-07-09T05:45:27;5.47;;;1.80;;
16031;SDS011;8120;48.308;8.914;2022-07-09T05:47:55;4.27;;;1.90;;
16031;SDS011;8120;48.308;8.914;2022-07-09T05:50:23;3.93;;;2.63;;
16031;SDS011;8120;48.308;8.914;2022-07-09T05:52:51;3.87;;;2.00;;
16031;SDS011;8120;48.308;8.914;2022-07-09T05:55:20;1.93;;;1.80;;
16031;SDS011;8120;48.308;8.914;2022-07-09T05:57:48;3.93;;;2.20;;
16031;SDS011;8120;48.308;8.914;2022-07-09T06:00:16;3.23;;;2.07;;
16031;SDS011;8120;48.308;8.914;2022-07-09T06:02:44;3.20;;;1.80;;
16031;SDS011;8120;48.308;8.914;2022-07-09T06:05:12;3.07;;;2.10;;
16031;SDS011;8120;48.308;8.914;2022-07-09T06:07:40;4.67;;;2.10;;
16031;SDS011;8120;48.308;8.914;2022-07-09T06:10:11;3.50;;;1.93;;
16031;SDS011;8120;48.308;8.914;2022-07-09T06:12:42;2.53;;;1.70;;
16031;SDS011;8120;48.308;8.914;2022-07-09T06:15:10;1.97;;;1.70;;
16031;SDS011;8120;48.308;8.914;2022-07-09T06:17:38;4.17;;;2.20;;
16031;SDS011;8120;48.308;8.914;2022-07-09T06:20:06;7.00;;;1.67;;
16031;SDS011;8120;48.308;8.914;2022-07-09T06:22:35;2.50;;;1.60;;
16031;SDS011;8120;48.308;8.914;2022-07-09T06:25:05;5.23;;;1.77;;
16031;SDS011;8120;48.308;8.914;2022-07-09T06:27:33;6.60;;;2.17;;
16031;SDS011;8120;48.308;8.914;2022-07-09T06:30:02;3.03;;;1.83;;
16031;SDS011;8120;48.308;8.914;2022-07-09T06:32:31;7.30;;;2.67;;
16031;SDS011;8120;48.308;8.914;2022-07-09T06:34:59;5.40;;;2.37;;
16031;SDS011;8120;48.308;8.914;2022-07-09T06:37:26;2.70;;;1.90;;
16031;SDS011;8120;48.308;8.914;2022-07-09T06:39:54;3.07;;;1.90;;
16031;SDS011;8120;48.308;8.914;2022-07-09T06:42:23;2.90;;;2.03;;
16031;SDS011;8120;48.308;8.914;2022-07-09T06:44:54;4.60;;;1.97;;
16031;SDS011;8120;48.308;8.914;2022-07-09T06:47:24;1.80;;;1.57;;
16031;SDS011;8120;48.308;8.914;2022-07-09T06:49:51;5.33;;;1.70;;
16031;SDS011;8120;48.308;8.914;2022-07-09T06:52:19;4.10;;;1.93;;
16031;SDS011;8120;48.308;8.914;2022-07-09T06:54:47;2.37;;;1.70;;
16031;SDS011;8120;48.308;8.914;2022-07-09T06:57:15;2.47;;;1.97;;
16031;SDS011;8120;48.308;8.914;2022-07-09T06:59:44;3.80;;;1.80;;
16031;SDS011;8120;48.308;8.914;2022-07-09T07:02:12;3.57;;;1.60;;
16031;SDS011;8120;48.308;8.914;2022-07-09T07:04:45;5.20;;;1.90;;
16031;SDS011;8120;48.308;8.914;2022-07-09T07:07:13;2.23;;;1.60;;
16031;SDS011;8120;48.308;8.914;2022-07-09T07:09:40;4.37;;;2.20;;
16031;SDS011;8120;48.308;8.914;2022-07-09T07:12:08;4.40;;;2.07;;
16031;SDS011;8120;48.308;8.914;2022-07-09T07:14:36;4.20;;;1.63;;
16031;SDS011;8120;48.308;8.914;2022-07-09T07:17:04;5.57;;;1.80;;
16031;SDS011;8120;48.308;8.914;2022-07-09T07:19:32;3.23;;;1.67;;
16031;SDS011;8120;48.308;8.914;2022-07-09T07:22:01;3.50;;;1.80;;
16031;SDS011;8120;48.308;8.914;2022-07-09T07:24:29;3.20;;;2.13;;
16031;SDS011;8120;48.308;8.914;2022-07-09T07:26:57;3.90;;;2.00;;
16031;SDS011;8120;48.308;8.914;2022-07-09T07:29:25;2.53;;;1.63;;
16031;SDS011;8120;48.308;8.914;2022-07-09T07:31:53;4.03;;;1.70;;
16031;SDS011;8120;48.308;8.914;2022-07-09T07:34:23;5.43;;;1.77;;
16031;SDS011;8120;48.308;8.914;2022-07-09T07:36:50;4.15;;;2.17;;
16031;SDS011;8120;48.308;8.914;2022-07-09T07:39:20;6.18;;;2.50;;
16031;SDS011;8120;48.308;8.914;2022-07-09T07:41:51;3.40;;;2.17;;
16031;SDS011;8120;48.308;8.914;2022-07-09T07:44:18;5.40;;;2.60;;
16031;SDS011;8120;48.308;8.914;2022-07-09T07:46:47;3.17;;;1.92;;
16031;SDS011;8120;48.308;8.914;2022-07-09T07:49:14;3.42;;;1.90;;
16031;SDS011;8120;48.308;8.914;2022-07-09T07:51:42;3.45;;;1.85;;
16031;SDS011;8120;48.308;8.914;2022-07-09T07:54:10;4.70;;;2.22;;
16031;SDS011;8120;48.308;8.914;2022-07-09T07:56:40;5.00;;;1.90;;
16031;SDS011;8120;48.308;8.914;2022-07-09T07:59:08;4.68;;;2.10;;
16031;SDS011;8120;48.308;8.914;2022-07-09T08:01:36;4.60;;;2.20;;
16031;SDS011;8120;48.308;8.914;2022-07-09T08:04:04;4.60;;;2.07;;
16031;SDS011;8120;48.308;8.914;2022-07-09T08:06:31;4.17;;;1.67;;
16031;SDS011;8120;48.308;8.914;2022-07-09T08:09:00;4.93;;;1.90;;
16031;SDS011;8120;48.308;8.914;2022-07-09T08:11:28;5.77;;;2.30;;
16031;SDS011;8120;48.308;8.914;2022-07-09T08:13:57;4.90;;;2.10;;
16031;SDS011;8120;48.308;8.914;2022-07-09T08:16:25;6.97;;;2.40;;
16031;SDS011;8120;48.308;8.914;2022-07-09T08:18:53;4.93;;;2.10;;
16031;SDS011;8120;48.308;8.914;2022-07-09T08:21:21;4.90;;;1.80;;
16031;SDS011;8120;48.308;8.914;2022-07-09T08:23:49;5.35;;;1.60;;
16031;SDS011;8120;48.308;8.914;2022-07-09T08:26:22;2.80;;;1.70;;
16031;SDS011;8120;48.308;8.914;2022-07-09T08:28:51;5.07;;;1.60;;
16031;SDS011;8120;48.308;8.914;2022-07-09T08:31:21;3.03;;;1.50;;
16031;SDS011;8120;48.308;8.914;2022-07-09T08:33:49;2.28;;;1.52;;
16031;SDS011;8120;48.308;8.914;2022-07-09T08:36:18;3.15;;;1.73;;
16031;SDS011;8120;48.308;8.914;2022-07-09T08:38:46;2.85;;;1.90;;
16031;SDS011;8120;48.308;8.914;2022-07-09T08:41:16;4.22;;;1.98;;
16031;SDS011;8120;48.308;8.914;2022-07-09T08:43:52;5.70;;;2.13;;
16031;SDS011;8120;48.308;8.914;2022-07-09T08:46:21;4.57;;;2.15;;
16031;SDS011;8120;48.308;8.914;2022-07-09T08:48:49;4.03;;;1.95;;
16031;SDS011;8120;48.308;8.914;2022-07-09T08:51:18;5.47;;;2.03;;
16031;SDS011;8120;48.308;8.914;2022-07-09T08:53:47;3.30;;;1.63;;
16031;SDS011;8120;48.308;8.914;2022-07-09T08:56:15;3.55;;;1.67;;
16031;SDS011;8120;48.308;8.914;2022-07-09T08:58:43;39.67;;;8.90;;
16031;SDS011;8120;48.308;8.914;2022-07-09T09:01:12;4.30;;;1.67;;
16031;SDS011;8120;48.308;8.914;2022-07-09T09:03:43;2.00;;;1.40;;
16031;SDS011;8120;48.308;8.914;2022-07-09T09:06:12;2.55;;;1.73;;
16031;SDS011;8120;48.308;8.914;2022-07-09T09:08:41;2.65;;;1.70;;
16031;SDS011;8120;48.308;8.914;2022-07-09T09:11:12;7.20;;;1.60;;
16031;SDS011;8120;48.308;8.914;2022-07-09T09:13:44;6.70;;;1.88;;
16031;SDS011;8120;48.308;8.914;2022-07-09T09:16:14;3.38;;;1.50;;
16031;SDS011;8120;48.308;8.914;2022-07-09T09:18:45;2.75;;;1.67;;
16031;SDS011;8120;48.308;8.914;2022-07-09T09:21:14;2.03;;;1.50;;
16031;SDS011;8120;48.308;8.914;2022-07-09T09:23:46;3.20;;;1.30;;
16031;SDS011;8120;48.308;8.914;2022-07-09T09:26:16;1.13;;;0.95;;
16031;SDS011;8120;48.308;8.914;2022-07-09T09:28:46;3.58;;;1.23;;
16031;SDS011;8120;48.308;8.914;2022-07-09T09:31:18;2.58;;;1.50;;
16031;SDS011;8120;48.308;8.914;2022-07-09T09:33:49;1.85;;;1.20;;
16031;SDS011;8120;48.308;8.914;2022-07-09T09:36:30;2.53;;;1.20;;
16031;SDS011;8120;48.308;8.914;2022-07-09T09:39:11;3.40;;;1.63;;
16031;SDS011;8120;48.308;8.914;2022-07-09T09:41:40;2.47;;;1.08;;
16031;SDS011;8120;48.308;8.914;2022-07-09T09:44:10;1.65;;;1.00;;
16031;SDS011;8120;48.308;8.914;2022-07-09T09:46:40;2.15;;;1.10;;
16031;SDS011;8120;48.308;8.914;2022-07-09T09:49:11;1.27;;;1.00;;
16031;SDS011;8120;48.308;8.914;2022-07-09T09:51:44;1.15;;;1.08;;
16031;SDS011;8120;48.308;8.914;2022-07-09T09:54:15;2.40;;;1.25;;
16031;SDS011;8120;48.308;8.914;2022-07-09T09:56:45;3.47;;;1.30;;
16031;SDS011;8120;48.308;8.914;2022-07-09T09:59:13;1.88;;;1.30;;
16031;SDS011;8120;48.308;8.914;2022-07-09T10:01:41;2.15;;;1.40;;
16031;SDS011;8120;48.308;8.914;2022-07-09T10:04:11;2.30;;;1.33;;
16031;SDS011;8120;48.308;8.914;2022-07-09T10:06:42;3.08;;;1.45;;
16031;SDS011;8120;48.308;8.914;2022-07-09T10:09:11;4.75;;;1.80;;
16031;SDS011;8120;48.308;8.914;2022-07-09T10:11:43;4.28;;;1.48;;
16031;SDS011;8120;48.308;8.914;2022-07-09T10:14:15;2.97;;;1.20;;
16031;SDS011;8120;48.308;8.914;2022-07-09T10:16:45;2.70;;;1.50;;
16031;SDS011;8120;48.308;8.914;2022-07-09T10:19:23;2.28;;;1.23;;
16031;SDS011;8120;48.308;8.914;2022-07-09T10:21:52;2.28;;;1.30;;
16031;SDS011;8120;48.308;8.914;2022-07-09T10:24:23;1.50;;;1.30;;
16031;SDS011;8120;48.308;8.914;2022-07-09T10:26:54;3.25;;;1.40;;
16031;SDS011;8120;48.308;8.914;2022-07-09T10:29:30;2.45;;;1.20;;
16031;SDS011;8120;48.308;8.914;2022-07-09T10:31:58;2.55;;;1.00;;
16031;SDS011;8120;48.308;8.914;2022-07-09T10:34:53;2.33;;;1.27;;
16031;SDS011;8120;48.308;8.914;2022-07-09T10:37:33;1.25;;;0.88;;
16031;SDS011;8120;48.308;8.914;2022-07-09T10:40:09;0.70;;;0.70;;
16031;SDS011;8120;48.308;8.914;2022-07-09T10:42:38;1.40;;;1.00;;
16031;SDS011;8120;48.308;8.914;2022-07-09T10:45:20;2.33;;;0.95;;
16031;SDS011;8120;48.308;8.914;2022-07-09T10:47:50;1.40;;;1.10;;
16031;SDS011;8120;48.308;8.914;2022-07-09T10:50:25;1.38;;;1.23;;
16031;SDS011;8120;48.308;8.914;2022-07-09T10:52:55;1.90;;;1.10;;
16031;SDS011;8120;48.308;8.914;2022-07-09T10:55:24;2.22;;;1.27;;
16031;SDS011;8120;48.308;8.914;2022-07-09T10:57:53;1.75;;;1.23;;
16031;SDS011;8120;48.308;8.914;2022-07-09T11:00:22;1.92;;;1.20;;
16031;SDS011;8120;48.308;8.914;2022-07-09T11:02:55;3.00;;;0.77;;
16031;SDS011;8120;48.308;8.914;2022-07-09T11:05:26;1.38;;;0.65;;
16031;SDS011;8120;48.308;8.914;2022-07-09T11:07:59;1.92;;;1.17;;
16031;SDS011;8120;48.308;8.914;2022-07-09T11:10:29;1.92;;;0.90;;
16031;SDS011;8120;48.308;8.914;2022-07-09T11:12:58;2.35;;;0.88;;
16031;SDS011;8120;48.308;8.914;2022-07-09T11:15:28;1.52;;;1.15;;
16031;SDS011;8120;48.308;8.914;2022-07-09T11:18:00;1.88;;;1.30;;
16031;SDS011;8120;48.308;8.914;2022-07-09T11:20:31;1.67;;;0.82;;
16031;SDS011;8120;48.308;8.914;2022-07-09T11:23:00;4.10;;;1.27;;
16031;SDS011;8120;48.308;8.914;2022-07-09T11:25:28;2.38;;;1.40;;
16031;SDS011;8120;48.308;8.914;2022-07-09T11:27:57;0.93;;;0.82;;
16031;SDS011;8120;48.308;8.914;2022-07-09T11:30:26;3.50;;;1.30;;
16031;SDS011;8120;48.308;8.914;2022-07-09T11:32:56;3.25;;;1.13;;
16031;SDS011;8120;48.308;8.914;2022-07-09T11:35:25;2.00;;;1.13;;
16031;SDS011;8120;48.308;8.914;2022-07-09T11:37:56;1.10;;;1.00;;
16031;SDS011;8120;48.308;8.914;2022-07-09T11:40:25;1.40;;;1.20;;
16031;SDS011;8120;48.308;8.914;2022-07-09T11:42:53;1.77;;;0.90;;
16031;SDS011;8120;48.308;8.914;2022-07-09T11:45:22;3.17;;;0.98;;
16031;SDS011;8120;48.308;8.914;2022-07-09T11:48:01;1.25;;;0.93;;
16031;SDS011;8120;48.308;8.914;2022-07-09T11:50:33;2.50;;;1.05;;
16031;SDS011;8120;48.308;8.914;2022-07-09T11:53:18;3.38;;;1.45;;
16031;SDS011;8120;48.308;8.914;2022-07-09T11:55:56;2.83;;;1.35;;
16031;SDS011;8120;48.308;8.914;2022-07-09T11:58:26;0.93;;;0.93;;
16031;SDS011;8120;48.308;8.914;2022-07-09T12:00:54;2.35;;;1.30;;
16031;SDS011;8120;48.308;8.914;2022-07-09T12:03:25;0.93;;;0.90;;
16031;SDS011;8120;48.308;8.914;2022-07-09T12:05:54;1.25;;;1.10;;
16031;SDS011;8120;48.308;8.914;2022-07-09T12:08:27;1.70;;;1.02;;
16031;SDS011;8120;48.308;8.914;2022-07-09T12:10:56;1.63;;;1.30;;
16031;SDS011;8120;48.308;8.914;2022-07-09T12:13:24;4.03;;;1.50;;
16031;SDS011;8120;48.308;8.914;2022-07-09T12:15:52;1.52;;;1.23;;
16031;SDS011;8120;48.308;8.914;2022-07-09T12:18:20;2.78;;;1.10;;
16031;SDS011;8120;48.308;8.914;2022-07-09T12:20:48;2.83;;;1.55;;
16031;SDS011;8120;48.308;8.914;2022-07-09T12:23:16;1.77;;;1.00;;
16031;SDS011;8120;48.308;8.914;2022-07-09T12:25:45;2.05;;;1.35;;
16031;SDS011;8120;48.308;8.914;2022-07-09T12:28:13;0.93;;;0.90;;
16031;SDS011;8120;48.308;8.914;2022-07-09T12:30:41;1.20;;;1.05;;
16031;SDS011;8120;48.308;8.914;2022-07-09T12:33:10;1.20;;;1.10;;
16031;SDS011;8120;48.308;8.914;2022-07-09T12:35:38;2.13;;;1.20;;
16031;SDS011;8120;48.308;8.914;2022-07-09T12:38:06;1.15;;;1.05;;
16031;SDS011;8120;48.308;8.914;2022-07-09T12:40:34;2.50;;;1.13;;
16031;SDS011;8120;48.308;8.914;2022-07-09T12:43:03;1.85;;;1.40;;
16031;SDS011;8120;48.308;8.914;2022-07-09T12:45:31;2.25;;;1.10;;
16031;SDS011;8120;48.308;8.914;2022-07-09T12:47:59;2.47;;;1.23;;
16031;SDS011;8120;48.308;8.914;2022-07-09T12:50:27;2.42;;;1.20;;
16031;SDS011;8120;48.308;8.914;2022-07-09T12:52:54;0.90;;;0.90;;
16031;SDS011;8120;48.308;8.914;2022-07-09T12:55:22;2.08;;;1.27;;
16031;SDS011;8120;48.308;8.914;2022-07-09T12:57:50;1.88;;;1.00;;
16031;SDS011;8120;48.308;8.914;2022-07-09T13:00:19;1.63;;;1.10;;
16031;SDS011;8120;48.308;8.914;2022-07-09T13:02:48;6.75;;;1.50;;
16031;SDS011;8120;48.308;8.914;2022-07-09T13:05:16;2.30;;;1.30;;
16031;SDS011;8120;48.308;8.914;2022-07-09T13:07:44;3.63;;;1.15;;
16031;SDS011;8120;48.308;8.914;2022-07-09T13:10:12;2.35;;;1.02;;
16031;SDS011;8120;48.308;8.914;2022-07-09T13:12:40;1.77;;;1.38;;
16031;SDS011;8120;48.308;8.914;2022-07-09T13:15:08;1.30;;;1.20;;
16031;SDS011;8120;48.308;8.914;2022-07-09T13:17:38;1.15;;;0.90;;
16031;SDS011;8120;48.308;8.914;2022-07-09T13:20:06;1.45;;;0.95;;
16031;SDS011;8120;48.308;8.914;2022-07-09T13:22:35;2.92;;;1.52;;
16031;SDS011;8120;48.308;8.914;2022-07-09T13:25:03;1.00;;;1.00;;
16031;SDS011;8120;48.308;8.914;2022-07-09T13:27:32;0.90;;;0.90;;
16031;SDS011;8120;48.308;8.914;2022-07-09T13:30:00;1.23;;;1.05;;
16031;SDS011;8120;48.308;8.914;2022-07-09T13:32:28;3.03;;;1.55;;
16031;SDS011;8120;48.308;8.914;2022-07-09T13:34:57;4.25;;;1.33;;
16031;SDS011;8120;48.308;8.914;2022-07-09T13:37:25;1.58;;;1.23;;
16031;SDS011;8120;48.308;8.914;2022-07-09T13:39:53;2.45;;;1.60;;
16031;SDS011;8120;48.308;8.914;2022-07-09T13:42:21;1.65;;;1.05;;
16031;SDS011;8120;48.308;8.914;2022-07-09T13:44:49;1.52;;;1.40;;
16031;SDS011;8120;48.308;8.914;2022-07-09T13:47:17;2.65;;;1.50;;
16031;SDS011;8120;48.308;8.914;2022-07-09T13:49:45;2.45;;;1.30;;
16031;SDS011;8120;48.308;8.914;2022-07-09T13:52:14;1.83;;;1.20;;
16031;SDS011;8120;48.308;8.914;2022-07-09T13:54:42;1.95;;;1.58;;
16031;SDS011;8120;48.308;8.914;2022-07-09T13:57:10;1.58;;;1.15;;
16031;SDS011;8120;48.308;8.914;2022-07-09T13:59:38;1.35;;;1.13;;
16031;SDS011;8120;48.308;8.914;2022-07-09T14:02:06;1.90;;;1.40;;
16031;SDS011;8120;48.308;8.914;2022-07-09T14:04:34;1.98;;;1.30;;
16031;SDS011;8120;48.308;8.914;2022-07-09T14:07:02;1.83;;;1.13;;
16031;SDS011;8120;48.308;8.914;2022-07-09T14:09:32;2.28;;;1.30;;
16031;SDS011;8120;48.308;8.914;2022-07-09T14:12:00;1.98;;;1.40;;
16031;SDS011;8120;48.308;8.914;2022-07-09T14:14:29;2.42;;;1.48;;
16031;SDS011;8120;48.308;8.914;2022-07-09T14:16:57;1.75;;;1.42;;
16031;SDS011;8120;48.308;8.914;2022-07-09T14:19:25;4.20;;;1.70;;
16031;SDS011;8120;48.308;8.914;2022-07-09T14:21:52;1.58;;;1.48;;
16031;SDS011;8120;48.308;8.914;2022-07-09T14:24:20;4.07;;;1.90;;
16031;SDS011;8120;48.308;8.914;2022-07-09T14:26:49;1.90;;;1.60;;
16031;SDS011;8120;48.308;8.914;2022-07-09T14:29:17;2.10;;;1.17;;
16031;SDS011;8120;48.308;8.914;2022-07-09T14:31:49;6.38;;;1.40;;
16031;SDS011;8120;48.308;8.914;2022-07-09T14:34:17;5.18;;;1.90;;
16031;SDS011;8120;48.308;8.914;2022-07-09T14:36:44;3.33;;;1.50;;
16031;SDS011;8120;48.308;8.914;2022-07-09T14:39:14;1.63;;;1.40;;
16031;SDS011;8120;48.308;8.914;2022-07-09T14:41:41;3.25;;;1.60;;
16031;SDS011;8120;48.308;8.914;2022-07-09T14:44:11;3.63;;;1.83;;
16031;SDS011;8120;48.308;8.914;2022-07-09T14:46:39;4.82;;;1.70;;
16031;SDS011;8120;48.308;8.914;2022-07-09T14:49:07;2.08;;;1.75;;
16031;SDS011;8120;48.308;8.914;2022-07-09T14:51:36;2.65;;;1.55;;
16031;SDS011;8120;48.308;8.914;2022-07-09T14:54:05;4.85;;;3.20;;
16031;SDS011;8120;48.308;8.914;2022-07-09T14:56:33;2.67;;;1.90;;
16031;SDS011;8120;48.308;8.914;2022-07-09T14:59:01;5.63;;;3.50;;
16031;SDS011;8120;48.308;8.914;2022-07-09T15:01:30;2.95;;;1.75;;
16031;SDS011;8120;48.308;8.914;2022-07-09T15:03:58;5.05;;;2.00;;
16031;SDS011;8120;48.308;8.914;2022-07-09T15:06:26;3.45;;;1.65;;
16031;SDS011;8120;48.308;8.914;2022-07-09T15:08:54;2.78;;;1.85;;
16031;SDS011;8120;48.308;8.914;2022-07-09T15:11:22;3.85;;;1.83;;